createdAt,value
2018-03-29T00:00:05.902Z,8.12
2018-03-29T00:01:05.704Z,8.12
2018-03-29T00:02:06.421Z,8.12
2018-03-29T00:03:05.707Z,8.06
2018-03-29T00:04:06.209Z,8.06
2018-03-29T00:05:06.424Z,8.06
2018-03-29T00:06:05.700Z,8.06
2018-03-29T00:07:06.188Z,8.00
2018-03-29T00:08:05.940Z,8.00
2018-03-29T00:09:06.338Z,8.00
2018-03-29T00:10:06.362Z,8.00
2018-03-29T00:11:05.958Z,8.00
2018-03-29T00:12:05.704Z,8.00
2018-03-29T00:13:05.610Z,8.00
2018-03-29T00:14:05.545Z,8.00
2018-03-29T00:15:05.946Z,8.00
2018-03-29T00:16:05.792Z,8.00
2018-03-29T00:17:06.175Z,8.00
2018-03-29T00:18:05.619Z,8.00
2018-03-29T00:19:06.342Z,8.06
2018-03-29T00:20:05.570Z,8.12
2018-03-29T00:21:06.577Z,8.12
2018-03-29T00:22:06.427Z,8.12
2018-03-29T00:23:06.661Z,8.19
2018-03-29T00:24:06.023Z,8.19
2018-03-29T00:25:06.340Z,8.19
2018-03-29T00:26:05.784Z,8.19
2018-03-29T00:27:06.260Z,8.19
2018-03-29T00:28:05.533Z,8.12
2018-03-29T00:29:06.100Z,8.12
2018-03-29T00:30:06.372Z,8.12
2018-03-29T00:31:05.971Z,8.06
2018-03-29T00:32:05.776Z,8.06
2018-03-29T00:33:05.780Z,8.00
2018-03-29T00:34:05.707Z,8.00
2018-03-29T00:35:05.964Z,8.00
2018-03-29T00:36:06.421Z,8.00
2018-03-29T00:37:06.106Z,8.00
2018-03-29T00:38:05.774Z,8.00
2018-03-29T00:39:05.691Z,8.00
2018-03-29T00:40:06.053Z,8.00
2018-03-29T00:41:05.740Z,7.94
2018-03-29T00:42:06.187Z,7.94
2018-03-29T00:43:05.778Z,7.94
2018-03-29T00:44:05.698Z,7.94
2018-03-29T00:45:05.626Z,7.94
2018-03-29T00:46:06.330Z,7.94
2018-03-29T00:47:06.267Z,7.94
2018-03-29T00:48:06.100Z,7.94
2018-03-29T00:49:05.715Z,7.88
2018-03-29T00:50:07.145Z,7.88
2018-03-29T00:51:05.705Z,7.88
2018-03-29T00:52:05.718Z,7.88
2018-03-29T00:53:06.276Z,7.81
2018-03-29T00:54:06.841Z,7.81
2018-03-29T00:55:05.791Z,7.81
2018-03-29T00:56:05.809Z,7.81
2018-03-29T00:57:05.855Z,7.75
2018-03-29T00:58:05.858Z,7.75
2018-03-29T00:59:05.706Z,7.75
2018-03-29T01:00:06.336Z,7.75
2018-03-29T01:01:06.416Z,7.69
2018-03-29T01:02:06.453Z,7.69
2018-03-29T01:03:05.639Z,7.62
2018-03-29T01:04:11.263Z,7.62
2018-03-29T01:05:05.936Z,7.62
2018-03-29T01:06:05.932Z,7.62
2018-03-29T01:07:06.015Z,7.56
2018-03-29T01:08:05.877Z,7.56
2018-03-29T01:09:05.626Z,7.56
2018-03-29T01:10:06.104Z,7.50
2018-03-29T01:11:05.948Z,7.56
2018-03-29T01:12:06.262Z,7.50
2018-03-29T01:13:05.784Z,7.44
2018-03-29T01:14:06.431Z,7.44
2018-03-29T01:15:06.096Z,7.44
2018-03-29T01:16:05.617Z,7.44
2018-03-29T01:17:06.202Z,7.44
2018-03-29T01:18:05.942Z,7.44
2018-03-29T01:19:06.187Z,7.38
2018-03-29T01:20:06.197Z,7.31
2018-03-29T01:21:05.699Z,7.31
2018-03-29T01:22:06.261Z,7.31
2018-03-29T01:23:06.011Z,7.25
2018-03-29T01:24:06.440Z,7.25
2018-03-29T01:25:05.802Z,7.25
2018-03-29T01:26:06.269Z,7.25
2018-03-29T01:27:05.459Z,7.19
2018-03-29T01:28:06.205Z,7.19
2018-03-29T01:29:06.277Z,7.19
2018-03-29T01:30:05.863Z,7.19
2018-03-29T01:31:06.173Z,7.19
2018-03-29T01:32:05.804Z,7.19
2018-03-29T01:33:06.098Z,7.12
2018-03-29T01:34:06.175Z,7.12
2018-03-29T01:35:06.037Z,7.12
2018-03-29T01:36:05.880Z,7.12
2018-03-29T01:37:05.859Z,7.12
2018-03-29T01:38:06.627Z,7.06
2018-03-29T01:39:05.466Z,7.06
2018-03-29T01:40:06.098Z,7.06
2018-03-29T01:41:06.507Z,7.06
2018-03-29T01:42:05.941Z,7.06
2018-03-29T01:43:06.333Z,7.06
2018-03-29T01:44:06.499Z,7.06
2018-03-29T01:45:05.807Z,7.00
2018-03-29T01:46:06.417Z,7.00
2018-03-29T01:47:05.616Z,7.00
2018-03-29T01:48:05.689Z,6.94
2018-03-29T01:49:06.249Z,6.94
2018-03-29T01:50:06.181Z,6.94
2018-03-29T01:51:05.696Z,6.94
2018-03-29T01:52:05.622Z,6.94
2018-03-29T01:53:06.020Z,6.88
2018-03-29T01:54:06.302Z,6.88
2018-03-29T01:55:06.181Z,6.88
2018-03-29T01:56:05.782Z,6.88
2018-03-29T01:57:06.264Z,6.88
2018-03-29T01:58:05.734Z,6.88
2018-03-29T01:59:06.338Z,6.88
2018-03-29T02:00:06.030Z,6.81
2018-03-29T02:01:06.266Z,6.81
2018-03-29T02:02:05.950Z,6.88
2018-03-29T02:03:06.411Z,6.88
2018-03-29T02:04:06.577Z,6.81
2018-03-29T02:05:05.604Z,6.81
2018-03-29T02:06:06.278Z,6.81
2018-03-29T02:07:05.718Z,6.81
2018-03-29T02:08:05.707Z,6.81
2018-03-29T02:09:06.425Z,6.81
2018-03-29T02:10:05.529Z,6.81
2018-03-29T02:11:05.810Z,6.75
2018-03-29T02:12:06.421Z,6.75
2018-03-29T02:13:05.932Z,6.75
2018-03-29T02:14:06.013Z,6.75
2018-03-29T02:15:06.338Z,6.75
2018-03-29T02:16:06.015Z,6.69
2018-03-29T02:17:06.258Z,6.69
2018-03-29T02:18:05.700Z,6.69
2018-03-29T02:19:05.691Z,6.69
2018-03-29T02:20:05.621Z,6.69
2018-03-29T02:21:06.585Z,6.69
2018-03-29T02:22:06.025Z,6.69
2018-03-29T02:23:06.178Z,6.69
2018-03-29T02:24:05.621Z,6.69
2018-03-29T02:25:06.276Z,6.69
2018-03-29T02:26:06.097Z,6.69
2018-03-29T02:27:06.455Z,6.69
2018-03-29T02:28:06.180Z,6.62
2018-03-29T02:29:06.104Z,6.62
2018-03-29T02:30:05.865Z,6.62
2018-03-29T02:31:06.196Z,6.62
2018-03-29T02:32:06.172Z,6.62
2018-03-29T02:33:06.253Z,6.62
2018-03-29T02:34:06.599Z,6.62
2018-03-29T02:35:05.464Z,6.62
2018-03-29T02:36:06.017Z,6.62
2018-03-29T02:37:06.440Z,6.62
2018-03-29T02:38:05.615Z,6.62
2018-03-29T02:39:06.093Z,6.62
2018-03-29T02:40:06.090Z,6.62
2018-03-29T02:41:06.089Z,6.62
2018-03-29T02:42:05.940Z,6.56
2018-03-29T02:43:06.267Z,6.56
2018-03-29T02:44:05.849Z,6.56
2018-03-29T02:45:06.026Z,6.50
2018-03-29T02:46:06.019Z,6.50
2018-03-29T02:47:05.861Z,6.50
2018-03-29T02:48:06.506Z,6.50
2018-03-29T02:49:06.098Z,6.50
2018-03-29T02:50:05.865Z,6.50
2018-03-29T02:51:06.253Z,6.50
2018-03-29T02:52:06.036Z,6.50
2018-03-29T02:53:06.092Z,6.44
2018-03-29T02:54:06.251Z,6.50
2018-03-29T02:55:06.265Z,6.50
2018-03-29T02:56:06.416Z,6.50
2018-03-29T02:57:06.423Z,6.50
2018-03-29T02:58:05.703Z,6.50
2018-03-29T02:59:06.481Z,6.50
2018-03-29T03:00:06.421Z,6.50
2018-03-29T03:01:06.172Z,6.50
2018-03-29T03:02:05.613Z,6.44
2018-03-29T03:03:05.452Z,6.44
2018-03-29T03:04:06.088Z,6.44
2018-03-29T03:05:06.190Z,6.44
2018-03-29T03:06:05.827Z,6.44
2018-03-29T03:07:05.778Z,6.38
2018-03-29T03:08:06.420Z,6.38
2018-03-29T03:09:05.535Z,6.38
2018-03-29T03:10:06.499Z,6.38
2018-03-29T03:11:05.534Z,6.38
2018-03-29T03:12:06.110Z,6.31
2018-03-29T03:13:06.115Z,6.38
2018-03-29T03:14:05.461Z,6.38
2018-03-29T03:15:06.098Z,6.38
2018-03-29T03:16:06.331Z,6.31
2018-03-29T03:17:06.433Z,6.31
2018-03-29T03:18:06.038Z,6.31
2018-03-29T03:19:06.422Z,6.25
2018-03-29T03:20:06.436Z,6.25
2018-03-29T03:21:05.963Z,6.25
2018-03-29T03:22:05.932Z,6.25
2018-03-29T03:23:05.619Z,6.25
2018-03-29T03:24:06.431Z,6.25
2018-03-29T03:25:06.021Z,6.25
2018-03-29T03:26:06.016Z,6.19
2018-03-29T03:27:05.619Z,6.25
2018-03-29T03:28:06.262Z,6.19
2018-03-29T03:29:05.938Z,6.19
2018-03-29T03:30:05.750Z,6.19
2018-03-29T03:31:06.584Z,6.19
2018-03-29T03:32:05.868Z,6.19
2018-03-29T03:33:05.722Z,6.19
2018-03-29T03:34:06.061Z,6.12
2018-03-29T03:35:05.703Z,6.12
2018-03-29T03:36:05.785Z,6.12
2018-03-29T03:37:06.400Z,6.12
2018-03-29T03:38:05.548Z,6.12
2018-03-29T03:39:06.424Z,6.12
2018-03-29T03:40:06.107Z,6.12
2018-03-29T03:41:05.818Z,6.12
2018-03-29T03:42:05.948Z,6.06
2018-03-29T03:43:06.210Z,6.12
2018-03-29T03:44:06.253Z,6.12
2018-03-29T03:45:06.351Z,6.06
2018-03-29T03:46:07.332Z,6.06
2018-03-29T03:47:06.030Z,6.06
2018-03-29T03:48:06.372Z,6.06
2018-03-29T03:49:06.016Z,6.06
2018-03-29T03:50:05.640Z,6.00
2018-03-29T03:51:06.503Z,6.00
2018-03-29T03:52:05.898Z,6.00
2018-03-29T03:53:06.452Z,6.00
2018-03-29T03:54:06.010Z,6.06
2018-03-29T03:55:05.950Z,6.00
2018-03-29T03:56:06.049Z,6.00
2018-03-29T03:57:06.420Z,6.00
2018-03-29T03:58:06.438Z,6.00
2018-03-29T03:59:06.181Z,6.00
2018-03-29T04:00:05.976Z,6.00
2018-03-29T04:01:06.091Z,6.00
2018-03-29T04:02:05.864Z,6.00
2018-03-29T04:03:05.539Z,6.00
2018-03-29T04:04:06.100Z,5.94
2018-03-29T04:05:06.061Z,5.94
2018-03-29T04:06:06.430Z,5.94
2018-03-29T04:07:05.624Z,5.88
2018-03-29T04:08:06.094Z,5.88
2018-03-29T04:09:05.714Z,5.88
2018-03-29T04:10:06.264Z,5.81
2018-03-29T04:11:05.768Z,5.81
2018-03-29T04:12:06.440Z,5.81
2018-03-29T04:13:06.184Z,5.81
2018-03-29T04:14:06.464Z,5.81
2018-03-29T04:15:05.969Z,5.81
2018-03-29T04:16:06.428Z,5.81
2018-03-29T04:17:05.634Z,5.81
2018-03-29T04:18:06.020Z,5.75
2018-03-29T04:19:06.125Z,5.75
2018-03-29T04:20:05.933Z,5.75
2018-03-29T04:21:06.414Z,5.75
2018-03-29T04:22:05.705Z,5.75
2018-03-29T04:23:06.101Z,5.75
2018-03-29T04:24:05.536Z,5.69
2018-03-29T04:25:06.675Z,5.69
2018-03-29T04:26:06.260Z,5.69
2018-03-29T04:27:06.336Z,5.69
2018-03-29T04:28:05.860Z,5.69
2018-03-29T04:29:05.852Z,5.69
2018-03-29T04:30:05.580Z,5.69
2018-03-29T04:31:06.099Z,5.62
2018-03-29T04:32:06.023Z,5.69
2018-03-29T04:33:06.338Z,5.62
2018-03-29T04:34:05.936Z,5.62
2018-03-29T04:35:05.790Z,5.62
2018-03-29T04:36:06.336Z,5.62
2018-03-29T04:37:05.701Z,5.56
2018-03-29T04:38:05.645Z,5.62
2018-03-29T04:39:06.014Z,5.56
2018-03-29T04:40:06.065Z,5.56
2018-03-29T04:41:06.426Z,5.50
2018-03-29T04:42:05.793Z,5.50
2018-03-29T04:43:05.945Z,5.50
2018-03-29T04:44:06.495Z,5.50
2018-03-29T04:45:06.098Z,5.50
2018-03-29T04:46:05.539Z,5.50
2018-03-29T04:47:06.186Z,5.50
2018-03-29T04:48:06.120Z,5.44
2018-03-29T04:49:05.623Z,5.44
2018-03-29T04:50:06.503Z,5.44
2018-03-29T04:51:06.495Z,5.44
2018-03-29T04:52:05.621Z,5.38
2018-03-29T04:53:06.193Z,5.44
2018-03-29T04:54:06.818Z,5.38
2018-03-29T04:55:05.872Z,5.56
2018-03-29T04:56:06.042Z,5.88
2018-03-29T04:57:06.175Z,5.94
2018-03-29T04:58:06.422Z,6.12
2018-03-29T04:59:05.693Z,6.12
2018-03-29T05:00:06.258Z,6.19
2018-03-29T05:01:06.684Z,6.25
2018-03-29T05:02:06.088Z,6.31
2018-03-29T05:03:05.804Z,6.31
2018-03-29T05:04:06.427Z,6.25
2018-03-29T05:05:06.385Z,6.12
2018-03-29T05:06:06.116Z,6.06
2018-03-29T05:07:06.013Z,6.00
2018-03-29T05:08:05.936Z,5.88
2018-03-29T05:09:05.865Z,5.81
2018-03-29T05:10:05.535Z,5.75
2018-03-29T05:11:06.198Z,5.69
2018-03-29T05:12:06.020Z,5.69
2018-03-29T05:13:06.494Z,5.62
2018-03-29T05:14:06.111Z,5.62
2018-03-29T05:15:06.505Z,5.56
2018-03-29T05:16:05.798Z,5.88
2018-03-29T05:17:05.891Z,6.06
2018-03-29T05:18:06.429Z,6.25
2018-03-29T05:19:06.171Z,6.25
2018-03-29T05:20:05.788Z,6.12
2018-03-29T05:21:06.454Z,6.00
2018-03-29T05:22:06.335Z,5.94
2018-03-29T05:23:06.660Z,5.88
2018-03-29T05:24:05.794Z,5.81
2018-03-29T05:25:06.347Z,5.75
2018-03-29T05:26:05.780Z,5.69
2018-03-29T05:27:05.944Z,5.62
2018-03-29T05:28:05.879Z,5.62
2018-03-29T05:29:05.616Z,5.56
2018-03-29T05:30:06.270Z,5.56
2018-03-29T05:31:08.027Z,5.50
2018-03-29T05:32:05.770Z,5.62
2018-03-29T05:33:05.714Z,5.75
2018-03-29T05:34:06.302Z,5.81
2018-03-29T05:35:05.795Z,6.00
2018-03-29T05:36:05.661Z,6.00
2018-03-29T05:37:06.422Z,6.06
2018-03-29T05:38:06.407Z,5.94
2018-03-29T05:39:05.936Z,6.12
2018-03-29T05:40:05.586Z,6.31
2018-03-29T05:41:06.328Z,6.31
2018-03-29T05:42:06.075Z,6.38
2018-03-29T05:43:05.702Z,6.25
2018-03-29T05:44:06.173Z,6.12
2018-03-29T05:45:05.859Z,6.06
2018-03-29T05:46:05.616Z,6.00
2018-03-29T05:47:06.520Z,6.12
2018-03-29T05:48:05.697Z,6.12
2018-03-29T05:49:06.424Z,6.25
2018-03-29T05:50:05.615Z,6.31
2018-03-29T05:51:06.425Z,6.19
2018-03-29T05:52:06.280Z,6.12
2018-03-29T05:53:05.866Z,6.00
2018-03-29T05:54:06.215Z,6.00
2018-03-29T05:55:05.453Z,5.94
2018-03-29T05:56:06.178Z,5.88
2018-03-29T05:57:06.277Z,5.81
2018-03-29T05:58:06.511Z,5.81
2018-03-29T05:59:06.495Z,5.75
2018-03-29T06:00:05.775Z,5.75
2018-03-29T06:01:06.101Z,5.75
2018-03-29T06:02:06.026Z,5.69
2018-03-29T06:03:05.725Z,5.69
2018-03-29T06:04:06.433Z,5.75
2018-03-29T06:05:06.657Z,5.88
2018-03-29T06:06:06.268Z,6.00
2018-03-29T06:07:06.180Z,6.00
2018-03-29T06:08:06.260Z,5.94
2018-03-29T06:09:06.017Z,5.94
2018-03-29T06:10:05.777Z,5.94
2018-03-29T06:11:06.183Z,5.88
2018-03-29T06:12:06.288Z,5.88
2018-03-29T06:13:05.459Z,5.88
2018-03-29T06:14:06.341Z,5.81
2018-03-29T06:15:05.550Z,5.81
2018-03-29T06:16:06.014Z,5.88
2018-03-29T06:17:06.017Z,5.88
2018-03-29T06:18:05.858Z,5.81
2018-03-29T06:19:05.532Z,5.81
2018-03-29T06:20:06.344Z,5.81
2018-03-29T06:21:06.256Z,5.81
2018-03-29T06:22:06.025Z,5.75
2018-03-29T06:23:06.457Z,5.75
2018-03-29T06:24:05.559Z,5.75
2018-03-29T06:25:06.017Z,5.75
2018-03-29T06:26:05.936Z,5.75
2018-03-29T06:27:05.961Z,5.75
2018-03-29T06:28:06.499Z,5.75
2018-03-29T06:29:05.785Z,5.75
2018-03-29T06:30:06.348Z,5.69
2018-03-29T06:31:06.415Z,5.69
2018-03-29T06:32:05.944Z,5.69
2018-03-29T06:33:05.457Z,5.69
2018-03-29T06:34:06.176Z,5.69
2018-03-29T06:35:06.359Z,5.69
2018-03-29T06:36:06.419Z,5.69
2018-03-29T06:37:06.028Z,5.75
2018-03-29T06:38:06.101Z,5.75
2018-03-29T06:39:05.889Z,5.75
2018-03-29T06:40:06.505Z,5.88
2018-03-29T06:41:06.414Z,6.06
2018-03-29T06:42:05.859Z,6.19
2018-03-29T06:43:06.259Z,6.38
2018-03-29T06:44:05.924Z,6.56
2018-03-29T06:45:06.171Z,6.69
2018-03-29T06:46:06.178Z,6.81
2018-03-29T06:47:06.284Z,6.75
2018-03-29T06:48:06.019Z,6.62
2018-03-29T06:49:05.875Z,6.56
2018-03-29T06:50:05.646Z,6.50
2018-03-29T06:51:05.809Z,6.44
2018-03-29T06:52:06.426Z,6.38
2018-03-29T06:53:05.956Z,6.50
2018-03-29T06:54:06.340Z,6.75
2018-03-29T06:55:06.600Z,6.81
2018-03-29T06:56:05.615Z,6.94
2018-03-29T06:57:05.713Z,6.81
2018-03-29T06:58:06.176Z,6.75
2018-03-29T06:59:06.094Z,6.62
2018-03-29T07:00:06.023Z,6.69
2018-03-29T07:01:05.934Z,6.81
2018-03-29T07:02:06.420Z,6.69
2018-03-29T07:03:06.360Z,6.62
2018-03-29T07:04:06.411Z,6.56
2018-03-29T07:05:06.254Z,6.56
2018-03-29T07:06:06.386Z,6.50
2018-03-29T07:07:06.422Z,6.50
2018-03-29T07:08:06.113Z,6.50
2018-03-29T07:09:06.272Z,6.50
2018-03-29T07:10:06.256Z,6.62
2018-03-29T07:11:06.452Z,6.88
2018-03-29T07:12:06.178Z,7.00
2018-03-29T07:13:06.756Z,7.12
2018-03-29T07:14:06.372Z,7.12
2018-03-29T07:15:05.964Z,7.06
2018-03-29T07:16:05.940Z,6.94
2018-03-29T07:17:06.525Z,6.81
2018-03-29T07:18:06.342Z,6.75
2018-03-29T07:19:06.099Z,6.69
2018-03-29T07:20:06.273Z,6.62
2018-03-29T07:21:06.258Z,6.62
2018-03-29T07:22:05.777Z,6.62
2018-03-29T07:23:06.110Z,6.56
2018-03-29T07:24:06.773Z,6.75
2018-03-29T07:25:06.749Z,6.94
2018-03-29T07:26:06.097Z,7.00
2018-03-29T07:27:06.051Z,7.00
2018-03-29T07:28:06.421Z,6.88
2018-03-29T07:29:05.550Z,6.81
2018-03-29T07:30:06.182Z,6.75
2018-03-29T07:31:05.810Z,6.69
2018-03-29T07:32:06.351Z,6.69
2018-03-29T07:33:05.619Z,6.62
2018-03-29T07:34:06.094Z,6.62
2018-03-29T07:35:05.859Z,6.69
2018-03-29T07:36:05.697Z,6.69
2018-03-29T07:37:06.129Z,6.69
2018-03-29T07:38:05.716Z,6.69
2018-03-29T07:39:07.152Z,6.69
2018-03-29T07:40:06.111Z,6.69
2018-03-29T07:41:06.334Z,6.81
2018-03-29T07:42:06.477Z,6.81
2018-03-29T07:43:05.710Z,6.94
2018-03-29T07:44:06.257Z,7.06
2018-03-29T07:45:06.104Z,7.12
2018-03-29T07:46:05.700Z,7.12
2018-03-29T07:47:06.362Z,7.25
2018-03-29T07:48:06.188Z,7.38
2018-03-29T07:49:05.694Z,7.44
2018-03-29T07:50:05.784Z,7.56
2018-03-29T07:51:06.255Z,7.69
2018-03-29T07:52:05.955Z,7.81
2018-03-29T07:53:05.536Z,7.94
2018-03-29T07:54:05.700Z,8.00
2018-03-29T07:55:06.033Z,8.12
2018-03-29T07:56:06.470Z,8.44
2018-03-29T07:57:05.938Z,8.69
2018-03-29T07:58:05.807Z,8.75
2018-03-29T07:59:06.429Z,8.81
2018-03-29T08:00:06.497Z,8.81
2018-03-29T08:01:05.621Z,8.81
2018-03-29T08:02:06.254Z,8.88
2018-03-29T08:03:05.993Z,8.88
2018-03-29T08:04:05.936Z,8.88
2018-03-29T08:05:06.107Z,8.88
2018-03-29T08:06:05.696Z,8.88
2018-03-29T08:07:06.423Z,8.88
2018-03-29T08:08:05.539Z,8.88
2018-03-29T08:09:05.706Z,8.88
2018-03-29T08:10:05.950Z,8.81
2018-03-29T08:11:06.426Z,8.81
2018-03-29T08:12:06.138Z,8.69
2018-03-29T08:13:05.799Z,8.69
2018-03-29T08:14:06.495Z,8.69
2018-03-29T08:15:06.356Z,8.62
2018-03-29T08:16:05.620Z,8.62
2018-03-29T08:17:11.268Z,8.56
2018-03-29T08:18:06.023Z,8.56
2018-03-29T08:19:05.702Z,8.56
2018-03-29T08:20:06.419Z,8.50
2018-03-29T08:21:06.011Z,8.50
2018-03-29T08:22:06.523Z,8.44
2018-03-29T08:23:06.510Z,8.44
2018-03-29T08:24:05.963Z,8.44
2018-03-29T08:25:06.426Z,8.44
2018-03-29T08:26:06.508Z,8.44
2018-03-29T08:27:05.705Z,8.44
2018-03-29T08:28:06.267Z,8.44
2018-03-29T08:29:05.938Z,8.38
2018-03-29T08:30:05.637Z,8.38
2018-03-29T08:31:06.437Z,8.38
2018-03-29T08:32:06.032Z,8.38
2018-03-29T08:33:05.638Z,8.38
2018-03-29T08:34:06.380Z,8.38
2018-03-29T08:35:06.664Z,8.31
2018-03-29T08:36:06.522Z,8.31
2018-03-29T08:37:05.918Z,8.31
2018-03-29T08:38:06.577Z,8.31
2018-03-29T08:39:05.535Z,8.31
2018-03-29T08:40:06.122Z,8.25
2018-03-29T08:41:05.933Z,8.25
2018-03-29T08:42:06.437Z,8.25
2018-03-29T08:43:06.215Z,8.25
2018-03-29T08:44:06.322Z,8.25
2018-03-29T08:45:06.127Z,8.25
2018-03-29T08:46:05.962Z,8.31
2018-03-29T08:47:05.488Z,8.25
2018-03-29T08:48:06.328Z,8.25
2018-03-29T08:49:06.263Z,8.19
2018-03-29T08:50:06.126Z,8.19
2018-03-29T08:51:06.345Z,8.19
2018-03-29T08:52:05.617Z,8.12
2018-03-29T08:53:05.548Z,8.19
2018-03-29T08:54:06.513Z,8.12
2018-03-29T08:55:06.094Z,8.19
2018-03-29T08:56:06.039Z,8.19
2018-03-29T08:57:05.512Z,8.19
2018-03-29T08:58:11.199Z,8.12
2018-03-29T08:59:05.627Z,8.19
2018-03-29T09:00:06.418Z,8.19
2018-03-29T09:01:07.327Z,8.19
2018-03-29T09:02:05.759Z,8.19
2018-03-29T09:03:05.666Z,8.19
2018-03-29T09:04:05.754Z,8.19
2018-03-29T09:05:06.484Z,8.12
2018-03-29T09:06:10.737Z,8.19
2018-03-29T09:07:06.340Z,8.19
2018-03-29T09:08:06.257Z,8.19
2018-03-29T09:09:05.877Z,8.19
2018-03-29T09:10:06.015Z,8.19
2018-03-29T09:11:05.565Z,8.19
2018-03-29T09:12:06.438Z,8.25
2018-03-29T09:13:06.118Z,8.25
2018-03-29T09:14:06.101Z,8.19
2018-03-29T09:15:05.872Z,8.25
2018-03-29T09:16:05.882Z,8.19
2018-03-29T09:17:05.944Z,8.19
2018-03-29T09:18:05.543Z,8.19
2018-03-29T09:19:05.702Z,8.19
2018-03-29T09:20:06.249Z,8.19
2018-03-29T09:21:06.198Z,8.19
2018-03-29T09:22:06.117Z,8.19
2018-03-29T09:23:05.704Z,8.25
2018-03-29T09:24:05.647Z,8.25
2018-03-29T09:25:05.940Z,8.25
2018-03-29T09:26:05.782Z,8.25
2018-03-29T09:27:06.557Z,8.25
2018-03-29T09:28:06.122Z,8.25
2018-03-29T09:29:06.015Z,8.25
2018-03-29T09:30:05.779Z,8.31
2018-03-29T09:31:06.421Z,8.31
2018-03-29T09:32:05.866Z,8.31
2018-03-29T09:33:06.185Z,8.31
2018-03-29T09:34:06.828Z,8.31
2018-03-29T09:35:05.616Z,8.31
2018-03-29T09:36:11.444Z,8.31
2018-03-29T09:37:06.034Z,8.31
2018-03-29T09:38:05.943Z,8.31
2018-03-29T09:39:05.459Z,8.31
2018-03-29T09:40:06.534Z,8.31
2018-03-29T09:41:06.347Z,8.31
2018-03-29T09:42:05.970Z,8.25
2018-03-29T09:43:06.352Z,8.25
2018-03-29T09:44:06.418Z,8.31
2018-03-29T09:45:06.431Z,8.25
2018-03-29T09:46:11.391Z,8.25
2018-03-29T09:47:06.021Z,8.25
2018-03-29T09:48:05.867Z,8.25
2018-03-29T09:49:06.107Z,8.25
2018-03-29T09:50:06.214Z,8.25
2018-03-29T09:51:05.863Z,8.25
2018-03-29T09:52:06.354Z,8.25
2018-03-29T09:53:05.948Z,8.25
2018-03-29T09:54:05.783Z,8.25
2018-03-29T09:55:06.427Z,8.25
2018-03-29T09:56:06.470Z,8.25
2018-03-29T09:57:05.462Z,8.25
2018-03-29T09:58:06.165Z,8.25
2018-03-29T09:59:06.568Z,8.25
2018-03-29T10:00:05.873Z,8.31
2018-03-29T10:01:05.885Z,8.31
2018-03-29T10:02:06.278Z,8.31
2018-03-29T10:03:06.234Z,8.31
2018-03-29T10:04:05.873Z,8.31
2018-03-29T10:05:05.876Z,8.31
2018-03-29T10:06:05.950Z,8.38
2018-03-29T10:07:06.356Z,8.38
2018-03-29T10:08:05.655Z,8.38
2018-03-29T10:09:06.259Z,8.38
2018-03-29T10:10:06.292Z,8.44
2018-03-29T10:11:05.867Z,8.44
2018-03-29T10:12:06.504Z,8.44
2018-03-29T10:13:06.820Z,8.44
2018-03-29T10:14:06.418Z,8.44
2018-03-29T10:15:06.265Z,8.50
2018-03-29T10:16:06.206Z,8.50
2018-03-29T10:17:06.583Z,8.50
2018-03-29T10:18:06.569Z,8.50
2018-03-29T10:19:05.502Z,8.50
2018-03-29T10:20:06.270Z,8.50
2018-03-29T10:21:06.274Z,8.56
2018-03-29T10:22:05.698Z,8.56
2018-03-29T10:23:06.184Z,8.56
2018-03-29T10:24:06.051Z,8.62
2018-03-29T10:25:06.461Z,8.62
2018-03-29T10:26:05.995Z,8.62
2018-03-29T10:27:05.616Z,8.62
2018-03-29T10:28:06.181Z,8.62
2018-03-29T10:29:06.261Z,8.62
2018-03-29T10:30:06.273Z,8.62
2018-03-29T10:31:06.434Z,8.62
2018-03-29T10:32:05.789Z,8.62
2018-03-29T10:33:05.479Z,8.62
2018-03-29T10:34:06.255Z,8.62
2018-03-29T10:35:05.934Z,8.62
2018-03-29T10:36:06.334Z,8.62
2018-03-29T10:37:06.100Z,8.62
2018-03-29T10:38:05.726Z,8.62
2018-03-29T10:39:11.192Z,8.62
2018-03-29T10:40:05.859Z,8.62
2018-03-29T10:41:05.848Z,8.62
2018-03-29T10:42:10.657Z,8.62
2018-03-29T10:43:06.222Z,8.62
2018-03-29T10:44:06.471Z,8.69
2018-03-29T10:45:06.187Z,8.69
2018-03-29T10:46:05.578Z,8.75
2018-03-29T10:47:05.539Z,8.81
2018-03-29T10:48:05.654Z,8.88
2018-03-29T10:49:06.284Z,8.88
2018-03-29T10:50:05.699Z,8.88
2018-03-29T10:51:05.547Z,8.88
2018-03-29T10:52:11.301Z,8.94
2018-03-29T10:53:05.948Z,8.94
2018-03-29T10:54:05.722Z,8.94
2018-03-29T10:55:06.178Z,9.00
2018-03-29T10:56:06.028Z,9.00
2018-03-29T10:57:06.243Z,9.00
2018-03-29T10:58:06.450Z,9.00
2018-03-29T10:59:06.054Z,9.00
2018-03-29T11:00:05.690Z,9.00
2018-03-29T11:01:11.086Z,9.00
2018-03-29T11:02:06.509Z,9.06
2018-03-29T11:03:05.880Z,9.00
2018-03-29T11:04:06.584Z,9.06
2018-03-29T11:05:10.816Z,9.06
2018-03-29T11:06:06.516Z,9.06
2018-03-29T11:07:05.809Z,9.00
2018-03-29T11:08:06.500Z,9.00
2018-03-29T11:09:05.716Z,9.00
2018-03-29T11:10:06.272Z,9.00
2018-03-29T11:11:06.350Z,9.00
2018-03-29T11:12:06.193Z,9.00
2018-03-29T11:13:05.742Z,9.00
2018-03-29T11:14:05.629Z,9.00
2018-03-29T11:15:06.036Z,9.00
2018-03-29T11:16:05.788Z,9.00
2018-03-29T11:17:06.109Z,9.00
2018-03-29T11:18:11.047Z,9.06
2018-03-29T11:19:05.551Z,9.06
2018-03-29T11:20:06.366Z,9.06
2018-03-29T11:21:05.855Z,9.06
2018-03-29T11:22:05.740Z,9.06
2018-03-29T11:23:06.349Z,9.12
2018-03-29T11:24:06.017Z,9.12
2018-03-29T11:25:06.089Z,9.12
2018-03-29T11:26:06.517Z,9.19
2018-03-29T11:27:06.581Z,9.19
2018-03-29T11:28:05.801Z,9.19
2018-03-29T11:29:05.597Z,9.19
2018-03-29T11:30:06.347Z,9.25
2018-03-29T11:31:05.788Z,9.25
2018-03-29T11:32:06.189Z,9.31
2018-03-29T11:33:05.704Z,9.38
2018-03-29T11:34:05.692Z,9.44
2018-03-29T11:35:06.420Z,9.44
2018-03-29T11:36:05.712Z,9.50
2018-03-29T11:37:05.620Z,9.56
2018-03-29T11:38:11.532Z,9.62
2018-03-29T11:39:06.269Z,9.69
2018-03-29T11:40:11.146Z,9.75
2018-03-29T11:41:05.851Z,9.81
2018-03-29T11:42:06.624Z,9.88
2018-03-29T11:43:06.506Z,10.00
2018-03-29T11:44:05.912Z,10.06
2018-03-29T11:45:05.985Z,10.12
2018-03-29T11:46:05.626Z,10.19
2018-03-29T11:47:11.279Z,10.19
2018-03-29T11:48:06.177Z,10.25
2018-03-29T11:49:06.705Z,10.31
2018-03-29T11:50:06.300Z,10.38
2018-03-29T11:51:05.955Z,10.38
2018-03-29T11:52:06.356Z,10.44
2018-03-29T11:53:05.619Z,10.44
2018-03-29T11:54:06.199Z,10.44
2018-03-29T11:55:05.785Z,10.44
2018-03-29T11:56:06.031Z,10.44
2018-03-29T11:57:06.462Z,10.44
2018-03-29T11:58:06.428Z,10.44
2018-03-29T11:59:06.606Z,10.44
2018-03-29T12:00:05.747Z,10.44
2018-03-29T12:01:05.891Z,10.44
2018-03-29T12:02:05.536Z,10.44
2018-03-29T12:03:05.472Z,10.44
2018-03-29T12:04:06.365Z,10.50
2018-03-29T12:05:05.976Z,10.44
2018-03-29T12:06:06.685Z,10.44
2018-03-29T12:07:05.879Z,10.44
2018-03-29T12:08:05.560Z,10.44
2018-03-29T12:09:11.067Z,10.44
2018-03-29T12:10:05.719Z,10.44
2018-03-29T12:11:06.429Z,10.44
2018-03-29T12:12:06.594Z,10.44
2018-03-29T12:13:06.479Z,10.44
2018-03-29T12:14:06.433Z,10.44
2018-03-29T12:15:05.542Z,10.44
2018-03-29T12:16:06.079Z,10.44
2018-03-29T12:17:06.101Z,10.44
2018-03-29T12:18:05.640Z,10.44
2018-03-29T12:19:06.278Z,10.44
2018-03-29T12:20:06.773Z,10.50
2018-03-29T12:21:06.103Z,10.44
2018-03-29T12:22:05.810Z,10.44
2018-03-29T12:23:11.375Z,10.44
2018-03-29T12:24:06.031Z,10.44
2018-03-29T12:25:05.709Z,10.44
2018-03-29T12:26:06.186Z,10.44
2018-03-29T12:27:05.927Z,10.44
2018-03-29T12:28:06.227Z,10.44
2018-03-29T12:29:06.509Z,10.44
2018-03-29T12:30:11.443Z,10.38
2018-03-29T12:31:06.134Z,10.38
2018-03-29T12:32:06.096Z,10.38
2018-03-29T12:33:06.020Z,10.38
2018-03-29T12:34:06.015Z,10.38
2018-03-29T12:35:05.627Z,10.31
2018-03-29T12:36:06.432Z,10.31
2018-03-29T12:37:05.811Z,10.31
2018-03-29T12:38:05.876Z,10.31
2018-03-29T12:39:10.825Z,10.31
2018-03-29T12:40:06.503Z,10.31
2018-03-29T12:41:05.876Z,10.31
2018-03-29T12:42:06.476Z,10.25
2018-03-29T12:43:06.510Z,10.25
2018-03-29T12:44:05.865Z,10.25
2018-03-29T12:45:05.978Z,10.25
2018-03-29T12:46:06.301Z,10.25
2018-03-29T12:47:06.359Z,10.25
2018-03-29T12:48:05.698Z,10.25
2018-03-29T12:49:05.777Z,10.25
2018-03-29T12:50:05.866Z,10.25
2018-03-29T12:51:05.976Z,10.25
2018-03-29T12:52:05.619Z,10.25
2018-03-29T12:53:11.281Z,10.19
2018-03-29T12:54:06.433Z,10.19
2018-03-29T12:55:05.701Z,10.19
2018-03-29T12:56:06.377Z,10.19
2018-03-29T12:57:05.691Z,10.19
2018-03-29T12:58:05.897Z,10.19
2018-03-29T12:59:05.703Z,10.12
2018-03-29T13:00:06.187Z,10.19
2018-03-29T13:01:07.170Z,10.12
2018-03-29T13:02:05.851Z,10.12
2018-03-29T13:03:06.414Z,10.12
2018-03-29T13:04:10.900Z,10.12
2018-03-29T13:05:06.254Z,10.12
2018-03-29T13:06:11.206Z,10.12
2018-03-29T13:07:05.861Z,10.12
2018-03-29T13:08:05.553Z,10.12
2018-03-29T13:09:06.025Z,10.12
2018-03-29T13:10:06.040Z,10.12
2018-03-29T13:11:05.539Z,10.12
2018-03-29T13:12:06.108Z,10.19
2018-03-29T13:13:06.433Z,10.12
2018-03-29T13:14:05.946Z,10.12
2018-03-29T13:15:05.787Z,10.19